createdAt,value
2023-03-22T00:00:42.646Z,100773.98
2023-03-22T00:03:24.184Z,100773.48
2023-03-22T00:06:00.554Z,100768.20
2023-03-22T00:08:32.377Z,100773.27
2023-03-22T00:11:04.258Z,100770.31
2023-03-22T00:13:37.203Z,100768.71
2023-03-22T00:16:10.896Z,100764.37
2023-03-22T00:18:42.981Z,100763.97
2023-03-22T00:21:16.086Z,100759.99
2023-03-22T00:23:48.386Z,100755.01
2023-03-22T00:26:20.335Z,100755.71
2023-03-22T00:28:52.188Z,100751.41
2023-03-22T00:31:24.185Z,100753.98
2023-03-22T00:33:56.376Z,100751.20
2023-03-22T00:36:28.561Z,100753.41
2023-03-22T00:39:00.592Z,100756.85
2023-03-22T00:41:32.410Z,100751.33
2023-03-22T00:44:04.407Z,100747.73
2023-03-22T00:46:36.229Z,100749.02
2023-03-22T00:49:08.109Z,100747.16
2023-03-22T00:51:39.949Z,100747.51
2023-03-22T00:54:11.950Z,100746.48
2023-03-22T00:56:45.516Z,100741.44
2023-03-22T00:59:18.787Z,100740.18
2023-03-22T01:01:50.767Z,100737.54
2023-03-22T01:04:26.002Z,100734.97
2023-03-22T01:07:01.404Z,100735.02
2023-03-22T01:09:33.948Z,100733.90
2023-03-22T01:12:06.215Z,100736.02
2023-03-22T01:14:38.024Z,100737.61
2023-03-22T01:17:10.018Z,100737.98
2023-03-22T01:19:42.002Z,100737.08
2023-03-22T01:22:13.911Z,100732.92
2023-03-22T01:24:45.978Z,100733.10
2023-03-22T01:27:17.911Z,100730.91
2023-03-22T01:29:50.773Z,100731.82
2023-03-22T01:32:22.602Z,100734.79
2023-03-22T01:34:54.549Z,100734.62
2023-03-22T01:37:27.738Z,100733.58
2023-03-22T01:39:59.680Z,100727.19
2023-03-22T01:42:32.223Z,100722.19
2023-03-22T01:45:38.062Z,100721.34
2023-03-22T01:48:14.935Z,100719.50
2023-03-22T01:50:51.572Z,100720.08
2023-03-22T01:53:23.692Z,100717.52
2023-03-22T01:55:56.047Z,100710.65
2023-03-22T01:58:34.507Z,100703.44
2023-03-22T02:01:08.203Z,100700.52
2023-03-22T02:04:09.767Z,100701.95
2023-03-22T02:06:42.200Z,100698.64
2023-03-22T02:09:22.047Z,100696.71
2023-03-22T02:11:57.769Z,100697.23
2023-03-22T02:14:53.844Z,100695.00
2023-03-22T02:18:01.715Z,100693.27
2023-03-22T02:21:00.198Z,100693.95
2023-03-22T02:23:51.224Z,100692.54
2023-03-22T02:26:44.169Z,100697.13
2023-03-22T02:29:23.015Z,100696.77
2023-03-22T02:32:27.365Z,100693.66
2023-03-22T02:35:17.806Z,100697.47
2023-03-22T02:38:42.436Z,100692.65
2023-03-22T02:41:17.001Z,100689.20
2023-03-22T02:43:57.923Z,100690.76
2023-03-22T02:46:32.329Z,100685.38
2023-03-22T02:49:07.882Z,100686.89
2023-03-22T02:51:44.241Z,100683.57
2023-03-22T02:54:20.779Z,100680.48
2023-03-22T02:56:55.127Z,100675.33
2023-03-22T02:59:28.208Z,100667.31
2023-03-22T03:02:01.691Z,100665.10
2023-03-22T03:04:36.395Z,100668.44
2023-03-22T03:07:10.290Z,100666.02
2023-03-22T03:09:44.078Z,100659.67
2023-03-22T03:12:21.345Z,100670.46
2023-03-22T03:14:53.593Z,100667.17
2023-03-22T03:17:34.668Z,100668.52
2023-03-22T03:20:34.458Z,100669.52
2023-03-22T03:23:15.610Z,100669.51
2023-03-22T03:25:54.091Z,100670.60
2023-03-22T03:28:42.402Z,100668.77
2023-03-22T03:42:20.448Z,100658.70
2023-03-22T03:46:04.698Z,100662.69
2023-03-22T03:49:14.351Z,100658.92
2023-03-22T03:51:49.395Z,100661.95
2023-03-22T03:54:18.895Z,100655.73
2023-03-22T03:56:49.318Z,100662.65
2023-03-22T03:59:20.351Z,100662.54
2023-03-22T04:09:36.803Z,100664.48
2023-03-22T04:12:52.315Z,100665.98
2023-03-22T04:15:23.656Z,100670.02
2023-03-22T04:18:05.596Z,100665.94
2023-03-22T04:20:41.501Z,100666.30
2023-03-22T04:23:10.998Z,100664.77
2023-03-22T04:59:17.372Z,100667.14
2023-03-22T05:02:09.598Z,100668.82
2023-03-22T05:04:42.454Z,100668.48
2023-03-22T05:07:18.531Z,100669.70
2023-03-22T05:09:52.668Z,100660.77
2023-03-22T05:12:33.753Z,100670.69
2023-03-22T05:19:38.675Z,100678.88
2023-03-22T05:22:07.883Z,100673.05
2023-03-22T05:24:46.190Z,100679.67
2023-03-22T05:36:02.530Z,100689.49
2023-03-22T05:38:33.409Z,100690.15
2023-03-22T05:41:02.406Z,100676.20
2023-03-22T05:43:32.412Z,100679.60
2023-03-22T05:46:00.869Z,100686.73
2023-03-22T05:48:35.811Z,100681.36
2023-03-22T05:51:07.935Z,100683.52
2023-03-22T05:53:37.000Z,100673.46
2023-03-22T05:56:10.963Z,100681.55
2023-03-22T05:58:41.762Z,100680.92
2023-03-22T06:01:15.442Z,100671.09
2023-03-22T06:03:50.177Z,100670.34
2023-03-22T06:06:41.676Z,100682.73
2023-03-22T06:09:17.687Z,100686.19
2023-03-22T06:11:49.903Z,100684.64
2023-03-22T06:14:18.648Z,100689.80
2023-03-22T06:16:56.873Z,100681.36
2023-03-22T06:19:25.368Z,100691.55
2023-03-22T06:21:54.252Z,100684.84
2023-03-22T06:24:23.219Z,100686.65
2023-03-22T06:26:51.769Z,100685.92
2023-03-22T06:29:20.749Z,100681.70
2023-03-22T06:31:52.298Z,100684.50
2023-03-22T06:34:20.820Z,100687.65
2023-03-22T06:36:49.761Z,100684.14
2023-03-22T06:39:27.481Z,100681.70
2023-03-22T06:41:56.573Z,100678.16
2023-03-22T06:44:25.525Z,100666.60
2023-03-22T06:46:53.913Z,100676.77
2023-03-22T06:49:48.717Z,100680.34
2023-03-22T06:52:22.109Z,100674.29
2023-03-22T06:54:52.702Z,100672.36
2023-03-22T06:57:21.200Z,100671.52
2023-03-22T06:59:49.629Z,100672.54
2023-03-22T07:02:18.045Z,100664.53
2023-03-22T07:05:07.913Z,100667.55
2023-03-22T07:07:36.413Z,100668.73
2023-03-22T07:10:07.763Z,100664.16
2023-03-22T07:12:36.545Z,100662.87
2023-03-22T07:15:11.047Z,100649.46
2023-03-22T07:17:51.374Z,100653.41
2023-03-22T07:20:19.049Z,100648.59
2023-03-22T07:22:47.472Z,100646.70
2023-03-22T07:25:15.296Z,100647.18
2023-03-22T07:27:44.580Z,100643.70
2023-03-22T07:30:14.369Z,100638.91
2023-03-22T07:32:45.913Z,100635.21
2023-03-22T07:35:18.127Z,100634.68
2023-03-22T07:37:47.865Z,100633.36
2023-03-22T07:40:21.451Z,100626.75
2023-03-22T07:42:52.952Z,100622.95
2023-03-22T07:45:32.706Z,100618.29
2023-03-22T07:48:22.456Z,100626.73
2023-03-22T07:50:58.736Z,100624.19
2023-03-22T07:53:27.259Z,100619.09
2023-03-22T07:55:55.842Z,100619.85
2023-03-22T07:58:24.261Z,100618.13
2023-03-22T08:00:53.252Z,100616.61
2023-03-22T08:03:40.710Z,100615.89
2023-03-22T08:06:32.223Z,100615.95
2023-03-22T08:09:00.682Z,100608.23
2023-03-22T08:11:29.186Z,100601.93
2023-03-22T08:13:57.659Z,100599.10
2023-03-22T08:16:26.775Z,100598.80
2023-03-22T08:18:55.899Z,100601.49
2023-03-22T08:21:25.356Z,100598.65
2023-03-22T08:23:54.834Z,100587.00
2023-03-22T08:26:29.201Z,100585.23
2023-03-22T08:29:00.603Z,100593.76
2023-03-22T08:31:31.670Z,100590.83
2023-03-22T08:34:00.812Z,100583.82
2023-03-22T08:36:30.596Z,100577.43
2023-03-22T08:39:03.711Z,100573.34
2023-03-22T08:41:45.332Z,100579.02
2023-03-22T08:44:13.805Z,100576.49
2023-03-22T08:46:42.703Z,100574.82
2023-03-22T08:49:11.517Z,100576.23
2023-03-22T08:51:44.158Z,100574.09
2023-03-22T08:54:18.416Z,100570.55
2023-03-22T08:57:08.802Z,100573.67
2023-03-22T09:00:04.687Z,100570.75
2023-03-22T09:03:05.452Z,100565.61
2023-03-22T09:05:33.931Z,100563.10
2023-03-22T09:08:06.591Z,100556.55
2023-03-22T09:10:43.491Z,100555.80
2023-03-22T09:13:14.510Z,100551.50
2023-03-22T09:15:48.278Z,100553.48
2023-03-22T09:18:25.711Z,100552.99
2023-03-22T09:20:54.785Z,100546.29
2023-03-22T09:23:26.814Z,100547.68
2023-03-22T09:25:55.855Z,100547.71
2023-03-22T09:28:25.810Z,100548.05
2023-03-22T09:31:01.251Z,100547.71
2023-03-22T09:33:29.919Z,100549.13
2023-03-22T09:35:59.052Z,100546.99
2023-03-22T09:38:27.763Z,100538.55
2023-03-22T09:41:00.993Z,100539.44
2023-03-22T09:43:34.274Z,100537.70
2023-03-22T09:46:05.809Z,100525.02
2023-03-22T09:48:36.906Z,100524.45
2023-03-22T09:51:21.658Z,100524.48
2023-03-22T09:53:50.133Z,100526.66
2023-03-22T09:56:23.263Z,100523.63
2023-03-22T09:58:54.926Z,100520.84
2023-03-22T10:01:30.655Z,100518.45
2023-03-22T10:04:29.142Z,100518.15
2023-03-22T10:07:01.244Z,100506.48
2023-03-22T10:09:31.814Z,100505.67
2023-03-22T10:12:04.588Z,100498.73
2023-03-22T10:14:36.987Z,100496.23
2023-03-22T10:17:08.837Z,100482.65
2023-03-22T10:19:42.082Z,100481.51
2023-03-22T10:22:12.629Z,100475.45
2023-03-22T10:24:43.990Z,100467.15
2023-03-22T10:27:15.629Z,100461.48
2023-03-22T10:29:46.489Z,100469.12
2023-03-22T10:32:17.240Z,100472.66
2023-03-22T10:34:46.842Z,100482.44
2023-03-22T10:37:17.081Z,100482.54
2023-03-22T10:39:49.194Z,100480.27
2023-03-22T10:42:20.841Z,100473.67
2023-03-22T10:44:50.763Z,100467.05
2023-03-22T10:47:25.409Z,100468.79
2023-03-22T10:49:55.875Z,100465.02
2023-03-22T10:52:36.362Z,100470.11
2023-03-22T10:55:09.795Z,100466.41
2023-03-22T10:57:39.243Z,100464.73
2023-03-22T11:00:11.987Z,100467.58
2023-03-22T11:02:47.957Z,100464.91
2023-03-22T11:05:27.269Z,100465.86
2023-03-22T11:07:57.829Z,100461.70
2023-03-22T11:10:28.873Z,100458.70
2023-03-22T11:13:13.778Z,100462.18
2023-03-22T11:15:49.109Z,100458.16
2023-03-22T11:18:18.691Z,100466.11
2023-03-22T11:20:57.083Z,100457.84
2023-03-22T11:23:26.064Z,100454.27
2023-03-22T11:25:57.056Z,100450.08
2023-03-22T11:28:32.933Z,100449.75
2023-03-22T11:31:07.750Z,100448.20
2023-03-22T11:33:37.133Z,100448.64
2023-03-22T11:36:16.894Z,100449.04
2023-03-22T11:38:47.258Z,100444.75
2023-03-22T11:41:23.717Z,100444.02
2023-03-22T11:43:54.384Z,100443.24
2023-03-22T11:46:23.767Z,100431.94
2023-03-22T11:48:57.661Z,100442.46
2023-03-22T11:51:30.312Z,100440.34
2023-03-22T11:54:04.500Z,100436.60
2023-03-22T11:56:32.922Z,100437.23
2023-03-22T11:59:08.116Z,100429.33
2023-03-22T12:01:40.465Z,100422.17
2023-03-22T12:04:11.169Z,100417.52
2023-03-22T12:06:41.054Z,100414.45
2023-03-22T12:09:22.135Z,100410.06
2023-03-22T12:11:53.271Z,100409.71
2023-03-22T12:14:25.340Z,100408.98
2023-03-22T12:16:57.278Z,100404.94
2023-03-22T12:19:38.654Z,100405.04
2023-03-22T12:22:12.060Z,100400.81
2023-03-22T12:24:42.819Z,100398.54
2023-03-22T12:27:17.032Z,100395.04
2023-03-22T12:29:50.012Z,100390.60
2023-03-22T12:32:23.633Z,100387.74
2023-03-22T12:35:01.339Z,100380.06
2023-03-22T12:37:39.617Z,100380.96
2023-03-22T12:40:18.135Z,100380.08
2023-03-22T12:42:53.609Z,100379.09
2023-03-22T12:45:27.998Z,100374.19
2023-03-22T12:48:02.355Z,100372.52
2023-03-22T12:50:36.043Z,100374.28
2023-03-22T12:53:05.936Z,100372.30
2023-03-22T12:55:36.922Z,100373.54
2023-03-22T12:58:07.409Z,100371.47
2023-03-22T13:00:40.077Z,100372.94
2023-03-22T13:03:20.465Z,100369.94
2023-03-22T13:05:48.494Z,100366.33
2023-03-22T13:08:21.711Z,100363.50
2023-03-22T13:11:00.640Z,100353.77
2023-03-22T13:13:47.185Z,100344.71
2023-03-22T13:16:16.846Z,100346.27
2023-03-22T13:19:03.305Z,100348.34
2023-03-22T13:21:35.206Z,100348.92
2023-03-22T13:24:22.284Z,100348.55
2023-03-22T13:26:52.364Z,100348.64
2023-03-22T13:29:23.757Z,100347.90
2023-03-22T13:31:57.770Z,100343.71
2023-03-22T13:34:37.672Z,100335.48
2023-03-22T13:37:10.468Z,100336.80
2023-03-22T13:39:38.976Z,100334.97
2023-03-22T13:42:16.237Z,100330.91
2023-03-22T13:44:46.281Z,100332.45
2023-03-22T13:47:35.691Z,100334.17
2023-03-22T13:50:10.995Z,100329.27
2023-03-22T13:52:42.583Z,100328.52
2023-03-22T13:55:37.305Z,100321.90
2023-03-22T13:58:11.153Z,100322.84
2023-03-22T14:00:49.023Z,100320.20
2023-03-22T14:03:24.803Z,100312.45
2023-03-22T14:06:04.053Z,100311.61
2023-03-22T14:08:33.361Z,100307.17
2023-03-22T14:11:06.960Z,100305.25
2023-03-22T14:13:39.959Z,100303.27
2023-03-22T14:16:12.867Z,100301.16
2023-03-22T14:18:43.340Z,100301.20
2023-03-22T14:21:15.680Z,100298.40
